Time,TemperatureF,DewpointF,PressureIn,WindDirection,WindDirectionDegrees,WindSpeedMPH,WindSpeedGustMPH,Humidity,HourlyPrecipIn,Conditions,Clouds,dailyrainin,SolarRadiationWatts/m^2,SoftwareType,DateUTC
2013-07-25 00:02:00,69.4,56.3,29.75,NNW,336,2.0,2.0,63,0.00,,,0.00,0,Wunderground v.1.15,2013-07-25 07:02:00,
2013-07-25 00:12:00,69.5,55.0,29.75,SW,232,2.0,2.0,60,0.00,,,0.00,0,Wunderground v.1.15,2013-07-25 07:12:00,
2013-07-25 00:22:00,67.9,56.5,29.75,NNW,343,0.0,0.0,67,0.00,,,0.00,0,Wunderground v.1.15,2013-07-25 07:22:00,
2013-07-25 00:32:00,67.4,55.6,29.75,West,276,1.0,1.0,66,0.00,,,0.00,0,Wunderground v.1.15,2013-07-25 07:32:00,
2013-07-25 00:42:00,67.3,57.6,29.75,WSW,254,5.0,5.0,71,0.87,,,0.08,0,Wunderground v.1.15,2013-07-25 07:42:00,
2013-07-25 00:52:00,65.1,57.3,29.76,East,98,4.0,4.0,76,0.67,,,0.16,0,Wunderground v.1.15,2013-07-25 07:52:00,
2013-07-25 01:02:00,63.5,57.2,29.78,ESE,110,2.0,3.0,80,0.60,,,0.21,0,Wunderground v.1.15,2013-07-25 08:02:00,
2013-07-25 01:12:00,62.4,57.5,29.78,SSW,205,2.0,3.0,84,0.12,,,0.23,0,Wunderground v.1.15,2013-07-25 08:12:00,
2013-07-25 01:22:00,61.4,57.5,29.79,WNW,284,2.0,2.0,87,0.04,,,0.23,0,Wunderground v.1.15,2013-07-25 08:22:00,
2013-07-25 01:32:00,61.1,57.5,29.79,WSW,254,0.0,1.0,88,0.00,,,0.23,0,Wunderground v.1.15,2013-07-25 08:32:00,
2013-07-25 03:22:00,60.6,57.7,29.75,ENE,68,0.0,0.0,90,0.00,,,0.23,0,Wunderground v.1.15,2013-07-25 10:22:00,
2013-07-25 03:32:00,60.3,57.7,29.75,North,3,1.0,1.0,91,0.00,,,0.23,0,Wunderground v.1.15,2013-07-25 10:32:00,
2013-07-25 03:42:00,60.0,57.4,29.75,West,273,0.0,0.0,91,0.00,,,0.23,0,Wunderground v.1.15,2013-07-25 10:42:00,
2013-07-25 03:52:00,59.9,57.6,29.75,West,273,0.0,0.0,92,0.00,,,0.23,0,Wunderground v.1.15,2013-07-25 10:52:00,
2013-07-25 04:02:00,60.3,57.7,29.75,West,273,0.0,2.0,91,0.00,,,0.23,0,Wunderground v.1.15,2013-07-25 11:02:00,
2013-07-25 04:12:00,60.7,57.7,29.75,North,11,1.0,1.0,90,0.00,,,0.23,0,Wunderground v.1.15,2013-07-25 11:12:00,
2013-07-25 04:22:00,60.6,58.0,29.75,East,94,0.0,0.0,91,0.00,,,0.23,0,Wunderground v.1.15,2013-07-25 11:22:00,
2013-07-25 04:32:00,60.4,58.1,29.75,North,349,0.0,1.0,92,0.00,,,0.23,0,Wunderground v.1.15,2013-07-25 11:32:00,
2013-07-25 04:42:00,60.4,57.8,29.75,NNW,348,2.0,4.0,91,0.00,,,0.23,0,Wunderground v.1.15,2013-07-25 11:42:00,
2013-07-25 04:52:00,61.2,57.9,29.75,NNE,16,2.0,2.0,89,0.00,,,0.23,0,Wunderground v.1.15,2013-07-25 11:52:00,
2013-07-25 05:02:00,60.9,57.9,29.76,NNE,16,0.0,0.0,90,0.00,,,0.23,0,Wunderground v.1.15,2013-07-25 12:02:00,
2013-07-25 05:12:00,61.2,58.2,29.76,NNE,21,0.0,0.0,90,0.00,,,0.23,0,Wunderground v.1.15,2013-07-25 12:12:00,
2013-07-25 05:22:00,61.0,58.0,29.76,NNE,21,0.0,0.0,90,0.00,,,0.23,0,Wunderground v.1.15,2013-07-25 12:22:00,
2013-07-25 05:32:00,62.2,58.3,29.76,North,353,1.0,1.0,87,0.00,,,0.23,0,Wunderground v.1.15,2013-07-25 12:32:00,
2013-07-25 05:42:00,62.4,58.2,29.75,WNW,301,2.0,3.0,86,0.00,,,0.23,11,Wunderground v.1.15,2013-07-25 12:42:00,
2013-07-25 05:52:00,62.6,58.0,29.76,WNW,301,2.0,2.0,85,0.00,,,0.23,12,Wunderground v.1.15,2013-07-25 12:52:00,
2013-07-25 06:02:00,62.4,57.8,29.76,WSW,255,2.0,2.0,85,0.00,,,0.23,19,Wunderground v.1.15,2013-07-25 13:02:00,
2013-07-25 06:12:00,62.5,58.3,29.76,NW,311,1.0,1.0,86,0.00,,,0.23,37,Wunderground v.1.15,2013-07-25 13:12:00,
2013-07-25 06:22:00,62.8,58.5,29.76,West,279,0.0,0.0,86,0.00,,,0.23,70,Wunderground v.1.15,2013-07-25 13:22:00,
2013-07-25 06:32:00,64.0,59.1,29.76,West,279,0.0,0.0,84,0.00,,,0.23,76,Wunderground v.1.15,2013-07-25 13:32:00,
2013-07-25 06:42:00,65.7,59.7,29.76,West,279,0.0,0.0,81,0.00,,,0.23,76,Wunderground v.1.15,2013-07-25 13:42:00,
2013-07-25 06:52:00,66.6,58.4,29.76,NW,309,0.0,0.0,75,0.00,,,0.23,79,Wunderground v.1.15,2013-07-25 13:52:00,
2013-07-25 07:02:00,67.3,59.5,29.76,NE,48,0.0,0.0,76,0.00,,,0.23,74,Wunderground v.1.15,2013-07-25 14:02:00,
2013-07-25 07:12:00,67.5,59.7,29.77,NE,48,0.0,0.0,76,0.00,,,0.23,77,Wunderground v.1.15,2013-07-25 14:12:00,
2013-07-25 07:22:00,68.0,60.2,29.77,NE,48,0.0,0.0,76,0.00,,,0.23,104,Wunderground v.1.15,2013-07-25 14:22:00,
2013-07-25 07:32:00,68.7,60.8,29.77,SSW,209,0.0,0.0,76,0.00,,,0.23,128,Wunderground v.1.15,2013-07-25 14:32:00,
2013-07-25 07:42:00,69.5,60.5,29.78,SSW,205,1.0,1.0,73,0.00,,,0.23,283,Wunderground v.1.15,2013-07-25 14:42:00,
2013-07-25 07:52:00,69.8,60.4,29.78,SW,224,2.0,2.0,72,0.00,,,0.23,241,Wunderground v.1.15,2013-07-25 14:52:00,
2013-07-25 08:02:00,69.8,60.4,29.78,SW,224,1.0,1.0,72,0.00,,,0.23,260,Wunderground v.1.15,2013-07-25 15:02:00,
2013-07-25 08:12:00,70.5,61.8,29.78,SW,219,0.0,0.0,74,0.00,,,0.23,221,Wunderground v.1.15,2013-07-25 15:12:00,
2013-07-25 08:22:00,71.8,61.1,29.78,ESE,107,0.0,2.0,69,0.00,,,0.23,497,Wunderground v.1.15,2013-07-25 15:22:00,
2013-07-25 08:32:00,72.7,60.3,29.78,ESE,107,0.0,0.0,65,0.00,,,0.23,526,Wunderground v.1.15,2013-07-25 15:32:00,
2013-07-25 08:42:00,73.3,59.5,29.78,ESE,113,1.0,2.0,62,0.00,,,0.23,555,Wunderground v.1.15,2013-07-25 15:42:00,
2013-07-25 08:52:00,74.1,60.2,29.78,SE,124,2.0,3.0,62,0.00,,,0.23,610,Wunderground v.1.15,2013-07-25 15:52:00,
2013-07-25 09:02:00,75.1,58.8,29.78,ESE,109,1.0,1.0,57,0.00,,,0.23,582,Wunderground v.1.15,2013-07-25 16:02:00,
2013-07-25 09:12:00,76.8,55.6,29.78,NNE,31,2.0,4.0,48,0.00,,,0.23,631,Wunderground v.1.15,2013-07-25 16:12:00,
2013-07-25 09:22:00,78.1,56.8,29.78,NNE,16,3.0,3.0,48,0.00,,,0.23,659,Wunderground v.1.15,2013-07-25 16:22:00,
2013-07-25 09:32:00,78.2,56.9,29.78,NNE,14,5.0,5.0,48,0.00,,,0.23,684,Wunderground v.1.15,2013-07-25 16:32:00,
2013-07-25 09:42:00,78.4,58.8,29.78,NNE,33,4.0,9.0,51,0.00,,,0.23,710,Wunderground v.1.15,2013-07-25 16:42:00,
2013-07-25 09:52:00,78.7,58.5,29.78,NNE,14,4.0,4.0,50,0.00,,,0.23,737,Wunderground v.1.15,2013-07-25 16:52:00,
2013-07-25 10:02:00,78.7,56.8,29.79,NNE,14,3.0,3.0,47,0.00,,,0.23,758,Wunderground v.1.15,2013-07-25 17:02:00,
2013-07-25 10:12:00,79.4,60.2,29.79,NE,39,1.0,7.0,52,0.00,,,0.23,828,Wunderground v.1.15,2013-07-25 17:12:00,
2013-07-25 10:22:00,79.9,59.0,29.79,NNE,16,4.0,5.0,49,0.00,,,0.23,814,Wunderground v.1.15,2013-07-25 17:22:00,
2013-07-25 10:32:00,80.0,60.2,29.79,ESE,120,2.0,4.0,51,0.00,,,0.23,933,Wunderground v.1.15,2013-07-25 17:32:00,
2013-07-25 10:42:00,78.4,57.7,29.79,NNW,338,3.0,3.0,49,0.00,,,0.23,178,Wunderground v.1.15,2013-07-25 17:42:00,
2013-07-25 10:52:00,78.3,57.6,29.79,NW,315,4.0,10.0,49,0.00,,,0.23,202,Wunderground v.1.15,2013-07-25 17:52:00,
2013-07-25 11:02:00,80.1,55.6,29.79,NNE,20,4.0,5.0,43,0.00,,,0.23,1037,Wunderground v.1.15,2013-07-25 18:02:00,
2013-07-25 11:12:00,77.8,57.7,29.78,North,9,3.0,5.0,50,0.00,,,0.23,183,Wunderground v.1.15,2013-07-25 18:12:00,
2013-07-25 11:22:00,77.2,57.1,29.78,North,350,6.0,7.0,50,0.00,,,0.23,104,Wunderground v.1.15,2013-07-25 18:22:00,
2013-07-25 11:32:00,76.7,56.7,29.79,NNW,338,4.0,5.0,50,0.00,,,0.23,76,Wunderground v.1.15,2013-07-25 18:32:00,
2013-07-25 11:42:00,76.4,56.4,29.78,NNE,20,4.0,4.0,50,0.00,,,0.23,60,Wunderground v.1.15,2013-07-25 18:42:00,
2013-07-25 11:52:00,75.7,58.9,29.79,North,9,2.0,2.0,56,0.00,,,0.23,53,Wunderground v.1.15,2013-07-25 18:52:00,
2013-07-25 12:02:00,75.3,58.0,29.77,NNE,18,3.0,3.0,55,0.00,,,0.23,42,Wunderground v.1.15,2013-07-25 19:02:00,
2013-07-25 12:12:00,74.7,57.5,29.79,ESE,104,0.0,0.0,55,0.00,,,0.23,37,Wunderground v.1.15,2013-07-25 19:12:00,
2013-07-25 12:22:00,72.9,58.2,29.79,SSE,155,4.0,4.0,60,0.00,,,0.23,37,Wunderground v.1.15,2013-07-25 19:22:00,
2013-07-25 12:32:00,69.2,57.4,29.78,SSW,208,7.0,7.0,66,0.00,,,0.23,39,Wunderground v.1.15,2013-07-25 19:32:00,
2013-07-25 12:42:00,69.4,58.4,29.78,SSE,154,3.0,3.0,68,0.00,,,0.23,39,Wunderground v.1.15,2013-07-25 19:42:00,
2013-07-25 12:52:00,70.0,58.5,29.80,South,190,2.0,2.0,67,0.00,,,0.23,39,Wunderground v.1.15,2013-07-25 19:52:00,
2013-07-25 13:02:00,70.1,58.6,29.79,WNW,288,3.0,3.0,67,0.00,,,0.23,35,Wunderground v.1.15,2013-07-25 20:02:00,
2013-07-25 13:12:00,69.9,59.3,29.79,NW,320,2.0,2.0,69,0.00,,,0.23,32,Wunderground v.1.15,2013-07-25 20:12:00,
2013-07-25 13:22:00,69.5,60.1,29.78,NW,320,0.0,2.0,72,0.00,,,0.23,30,Wunderground v.1.15,2013-07-25 20:22:00,
2013-07-25 13:32:00,68.9,60.3,29.79,NW,320,0.0,0.0,74,0.00,,,0.23,28,Wunderground v.1.15,2013-07-25 20:32:00,
2013-07-25 13:42:00,68.4,59.8,29.79,NW,320,0.0,0.0,74,0.00,,,0.23,28,Wunderground v.1.15,2013-07-25 20:42:00,
2013-07-25 13:52:00,68.2,60.0,29.79,NW,320,0.0,0.0,75,0.00,,,0.23,32,Wunderground v.1.15,2013-07-25 20:52:00,
2013-07-25 14:02:00,67.8,61.0,29.78,NW,320,0.0,0.0,79,0.00,,,0.23,33,Wunderground v.1.15,2013-07-25 21:02:00,
2013-07-25 14:12:00,67.7,61.3,29.77,SW,230,0.0,0.0,80,0.00,,,0.23,35,Wunderground v.1.15,2013-07-25 21:12:00,
2013-07-25 14:22:00,67.8,60.7,29.77,SW,230,0.0,0.0,78,0.00,,,0.23,37,Wunderground v.1.15,2013-07-25 21:22:00,
2013-07-25 14:32:00,68.1,60.2,29.77,SW,230,0.0,0.0,76,0.00,,,0.23,40,Wunderground v.1.15,2013-07-25 21:32:00,
2013-07-25 14:42:00,68.1,61.3,29.76,SW,230,0.0,0.0,79,0.00,,,0.23,49,Wunderground v.1.15,2013-07-25 21:42:00,
2013-07-25 14:52:00,67.9,61.1,29.76,SW,230,0.0,0.0,79,0.00,,,0.23,54,Wunderground v.1.15,2013-07-25 21:52:00,
2013-07-25 15:02:00,68.1,60.2,29.76,SSE,155,1.0,2.0,76,0.00,,,0.23,58,Wunderground v.1.15,2013-07-25 22:02:00,
2013-07-25 15:12:00,67.9,59.7,29.77,SSE,154,0.0,0.0,75,0.00,,,0.23,65,Wunderground v.1.15,2013-07-25 22:12:00,
2013-07-25 15:22:00,67.8,60.7,29.77,SSE,154,0.0,0.0,78,0.00,,,0.23,72,Wunderground v.1.15,2013-07-25 22:22:00,
2013-07-25 15:32:00,68.1,61.3,29.78,SSE,154,0.0,0.0,79,0.00,,,0.23,77,Wunderground v.1.15,2013-07-25 22:32:00,
2013-07-25 15:42:00,68.1,60.6,29.78,NNE,18,1.0,1.0,77,0.00,,,0.23,72,Wunderground v.1.15,2013-07-25 22:42:00,
2013-07-25 15:52:00,68.4,60.2,29.77,NE,46,0.0,0.0,75,0.00,,,0.23,67,Wunderground v.1.15,2013-07-25 22:52:00,
2013-07-25 16:02:00,68.6,60.7,29.76,East,88,0.0,0.0,76,0.00,,,0.23,63,Wunderground v.1.15,2013-07-25 23:02:00,
2013-07-25 16:12:00,68.4,61.3,29.76,East,88,0.0,0.0,78,0.00,,,0.23,60,Wunderground v.1.15,2013-07-25 23:12:00,
2013-07-25 16:22:00,68.2,60.7,29.77,East,88,1.0,1.0,77,0.00,,,0.23,49,Wunderground v.1.15,2013-07-25 23:22:00,
2013-07-25 16:32:00,68.7,60.1,29.78,South,188,0.0,0.0,74,0.00,,,0.23,44,Wunderground v.1.15,2013-07-25 23:32:00,
2013-07-25 16:42:00,70.9,57.7,29.78,SW,224,4.0,10.0,63,0.00,,,0.23,44,Wunderground v.1.15,2013-07-25 23:42:00,
2013-07-25 16:52:00,71.5,57.8,29.77,SW,228,4.0,4.0,62,0.00,,,0.23,46,Wunderground v.1.15,2013-07-25 23:52:00,
2013-07-25 17:02:00,71.4,57.7,29.77,SW,232,5.0,6.0,62,0.00,,,0.23,56,Wunderground v.1.15,2013-07-26 00:02:00,
2013-07-25 17:12:00,71.4,56.8,29.77,SW,233,6.0,6.0,60,0.00,,,0.23,53,Wunderground v.1.15,2013-07-26 00:12:00,
2013-07-25 17:22:00,71.6,57.0,29.77,WSW,240,6.0,7.0,60,0.00,,,0.23,46,Wunderground v.1.15,2013-07-26 00:22:00,
2013-07-25 17:32:00,71.7,56.6,29.77,SW,227,6.0,8.0,59,0.00,,,0.23,42,Wunderground v.1.15,2013-07-26 00:32:00,
2013-07-25 17:42:00,72.5,55.9,29.77,WSW,244,4.0,7.0,56,0.00,,,0.23,40,Wunderground v.1.15,2013-07-26 00:42:00,
2013-07-25 17:52:00,72.8,56.2,29.77,SW,220,3.0,4.0,56,0.00,,,0.23,37,Wunderground v.1.15,2013-07-26 00:52:00,
2013-07-25 18:02:00,71.9,56.8,29.77,West,279,5.0,5.0,59,0.00,,,0.23,32,Wunderground v.1.15,2013-07-26 01:02:00,
2013-07-25 18:12:00,71.2,56.6,29.78,NW,305,3.0,3.0,60,0.00,,,0.23,23,Wunderground v.1.15,2013-07-26 01:12:00,
2013-07-25 18:22:00,70.1,57.4,29.78,WNW,301,0.0,0.0,64,0.00,,,0.23,21,Wunderground v.1.15,2013-07-26 01:22:00,
2013-07-25 18:32:00,69.3,59.9,29.78,WNW,301,1.0,1.0,72,0.00,,,0.23,21,Wunderground v.1.15,2013-07-26 01:32:00,
2013-07-25 18:42:00,68.7,59.7,29.78,NNW,340,1.0,1.0,73,0.00,,,0.23,14,Wunderground v.1.15,2013-07-26 01:42:00,
2013-07-25 18:52:00,68.6,59.2,29.78,NNW,330,0.0,0.0,72,0.00,,,0.23,14,Wunderground v.1.15,2013-07-26 01:52:00,
2013-07-25 19:02:00,68.3,59.3,29.79,North,1,0.0,0.0,73,0.00,,,0.23,9,Wunderground v.1.15,2013-07-26 02:02:00,
2013-07-25 19:12:00,68.0,59.4,29.80,North,1,0.0,0.0,74,0.00,,,0.23,0,Wunderground v.1.15,2013-07-26 02:12:00,
2013-07-25 19:22:00,67.8,58.1,29.81,SSW,195,1.0,1.0,71,0.00,,,0.23,0,Wunderground v.1.15,2013-07-26 02:22:00,
2013-07-25 19:32:00,69.5,56.8,29.82,SE,146,3.0,6.0,64,0.00,,,0.23,0,Wunderground v.1.15,2013-07-26 02:32:00,
2013-07-25 19:42:00,70.3,57.1,29.82,South,174,3.0,4.0,63,0.00,,,0.23,0,Wunderground v.1.15,2013-07-26 02:42:00,
2013-07-25 19:52:00,69.9,57.6,29.82,South,181,3.0,6.0,65,0.00,,,0.23,0,Wunderground v.1.15,2013-07-26 02:52:00,
2013-07-25 20:02:00,69.9,57.2,29.81,South,186,5.0,5.0,64,0.00,,,0.23,0,Wunderground v.1.15,2013-07-26 03:02:00,
2013-07-25 20:12:00,69.8,57.5,29.81,West,263,5.0,6.0,65,0.00,,,0.23,0,Wunderground v.1.15,2013-07-26 03:12:00,
2013-07-25 20:22:00,70.2,57.4,29.80,SW,222,8.0,8.0,64,0.00,,,0.23,0,Wunderground v.1.15,2013-07-26 03:22:00,
2013-07-25 20:32:00,70.6,57.8,29.80,SSW,208,11.0,11.0,64,0.00,,,0.23,0,Wunderground v.1.15,2013-07-26 03:32:00,
2013-07-25 20:42:00,70.7,58.4,29.79,SSW,212,10.0,14.0,65,0.00,,,0.23,0,Wunderground v.1.15,2013-07-26 03:42:00,
2013-07-25 20:52:00,70.7,58.8,29.79,SW,221,9.0,9.0,66,0.00,,,0.23,0,Wunderground v.1.15,2013-07-26 03:52:00,
2013-07-25 21:02:00,70.8,58.4,29.79,WSW,254,8.0,8.0,65,0.00,,,0.23,0,Wunderground v.1.15,2013-07-26 04:02:00,
2013-07-25 21:12:00,70.9,58.1,29.80,WNW,290,6.0,6.0,64,0.00,,,0.23,0,Wunderground v.1.15,2013-07-26 04:12:00,
2013-07-25 21:22:00,69.8,57.9,29.80,West,281,3.0,3.0,66,0.00,,,0.23,0,Wunderground v.1.15,2013-07-26 04:22:00,
2013-07-25 21:32:00,70.0,57.7,29.81,NW,307,2.0,2.0,65,0.00,,,0.23,0,Wunderground v.1.15,2013-07-26 04:32:00,
2013-07-25 21:42:00,68.6,57.2,29.82,NW,320,2.0,2.0,67,0.00,,,0.23,0,Wunderground v.1.15,2013-07-26 04:42:00,
2013-07-25 21:52:00,68.0,57.0,29.82,NW,325,0.0,0.0,68,0.00,,,0.23,0,Wunderground v.1.15,2013-07-26 04:52:00,
2013-07-25 22:02:00,67.3,57.2,29.83,NW,311,1.0,1.0,70,0.00,,,0.23,0,Wunderground v.1.15,2013-07-26 05:02:00,
2013-07-25 22:12:00,67.4,57.3,29.83,North,359,1.0,1.0,70,0.00,,,0.23,0,Wunderground v.1.15,2013-07-26 05:12:00,
2013-07-25 22:22:00,66.7,57.0,29.82,NNW,330,0.0,2.0,71,0.00,,,0.23,0,Wunderground v.1.15,2013-07-26 05:22:00,
2013-07-25 22:32:00,67.1,57.4,29.82,NW,312,1.0,1.0,71,0.00,,,0.23,0,Wunderground v.1.15,2013-07-26 05:32:00,
2013-07-25 22:42:00,67.0,57.7,29.82,NNW,330,1.0,1.0,72,0.00,,,0.23,0,Wunderground v.1.15,2013-07-26 05:42:00,
2013-07-25 22:52:00,67.5,58.2,29.82,West,263,2.0,2.0,72,0.00,,,0.23,0,Wunderground v.1.15,2013-07-26 05:52:00,
2013-07-25 23:02:00,69.1,58.5,29.81,WNW,298,5.0,6.0,69,0.00,,,0.23,0,Wunderground v.1.15,2013-07-26 06:02:00,
2013-07-25 23:12:00,67.2,57.1,29.81,NNW,340,1.0,1.0,70,0.00,,,0.23,0,Wunderground v.1.15,2013-07-26 06:12:00,
2013-07-25 23:22:00,65.4,56.9,29.81,NNW,342,0.0,0.0,74,0.00,,,0.23,0,Wunderground v.1.15,2013-07-26 06:22:00,
2013-07-25 23:32:00,64.9,56.8,29.81,NNE,17,1.0,1.0,75,0.00,,,0.23,0,Wunderground v.1.15,2013-07-26 06:32:00,
2013-07-25 23:42:00,64.9,56.8,29.81,NW,325,1.0,3.0,75,0.00,,,0.23,0,Wunderground v.1.15,2013-07-26 06:42:00,
2013-07-25 23:52:00,64.9,56.8,29.81,NW,320,1.0,1.0,75,0.00,,,0.23,0,Wunderground v.1.15,2013-07-26 06:52:00,